Time;durP1;ratioP1;P1;durP2;ratioP2;P2;SDS_P1;SDS_P2;PMS_P1;PMS_P2;Temp;Humidity;BMP_temperature;BMP_pressure;BME280_temperature;BME280_humidity;BME280_pressure;Samples;Min_cycle;Max_cycle;Signal;HPM_P1;HPM_P2
2022/05/15 00:01:07;;;;;;;15.10;8.83;;;12.10;97.30;;;;;;5011171;28;20184;-79
2022/05/15 00:03:32;;;;;;;15.27;7.47;;;12.00;97.30;;;;;;5010629;28;21017;-79
2022/05/15 00:06:04;;;;;;;16.00;6.83;;;12.00;97.30;;;;;;5009453;28;20531;-79
2022/05/15 00:08:32;;;;;;;15.80;8.10;;;11.90;97.30;;;;;;5009218;28;20304;-79
2022/05/15 00:10:59;;;;;;;16.23;6.93;;;11.90;97.30;;;;;;5009120;28;20416;-79
2022/05/15 00:13:25;;;;;;;11.47;7.17;;;11.80;97.30;;;;;;5008462;28;20507;-79
2022/05/15 00:15:52;;;;;;;15.67;6.50;;;11.70;97.30;;;;;;5009234;28;20432;-79
2022/05/15 00:18:20;;;;;;;12.40;6.80;;;11.70;97.30;;;;;;5009134;28;20424;-77
2022/05/15 00:20:46;;;;;;;13.13;7.30;;;11.60;97.30;;;;;;5008829;28;20898;-79
2022/05/15 00:23:13;;;;;;;18.13;7.83;;;11.60;97.30;;;;;;5009293;28;20499;-79
2022/05/15 00:25:39;;;;;;;12.27;7.10;;;11.60;97.30;;;;;;5008858;28;20996;-79
2022/05/15 00:28:06;;;;;;;17.80;7.77;;;11.60;97.30;;;;;;5009252;28;20566;-79
2022/05/15 00:30:32;;;;;;;16.20;7.67;;;11.70;97.30;;;;;;5010627;28;20412;-79
2022/05/15 00:32:58;;;;;;;14.37;7.67;;;11.60;97.30;;;;;;5010993;28;20458;-79
2022/05/15 00:35:24;;;;;;;16.03;7.70;;;11.60;97.30;;;;;;5009193;28;20483;-78
2022/05/15 00:37:50;;;;;;;14.70;6.63;;;11.50;97.30;;;;;;5008986;28;20452;-79
2022/05/15 00:40:17;;;;;;;13.80;7.03;;;11.50;97.30;;;;;;5009061;28;20887;-79
2022/05/15 00:42:43;;;;;;;12.53;6.20;;;11.40;97.30;;;;;;5009372;28;20244;-79
2022/05/15 00:45:09;;;;;;;19.90;7.10;;;11.30;97.30;;;;;;5008875;28;20917;-79
2022/05/15 00:47:35;;;;;;;32.53;8.40;;;11.30;97.30;;;;;;5009931;28;20745;-79
2022/05/15 00:50:07;;;;;;;15.17;7.03;;;11.20;97.30;;;;;;5008577;28;20421;-79
2022/05/15 00:52:36;;;;;;;11.83;6.73;;;11.20;97.30;;;;;;5008713;28;20431;-78
2022/05/15 00:55:26;;;;;;;19.40;7.07;;;11.10;97.30;;;;;;5008588;28;20468;-79
2022/05/15 00:58:00;;;;;;;13.70;6.73;;;11.10;97.30;;;;;;5008507;28;20711;-79
2022/05/15 01:00:29;;;;;;;19.37;7.60;;;11.10;97.30;;;;;;5008804;28;20482;-78
2022/05/15 01:03:08;;;;;;;16.43;6.30;;;11.00;97.30;;;;;;5010088;28;20420;-79
2022/05/15 01:05:37;;;;;;;12.33;7.27;;;11.00;97.30;;;;;;5008662;28;20448;-78
2022/05/15 01:08:03;;;;;;;9.57;5.60;;;10.90;97.30;;;;;;5008742;28;20482;-75
2022/05/15 01:10:29;;;;;;;18.57;7.40;;;10.90;97.30;;;;;;5008590;28;20507;-75
2022/05/15 01:12:58;;;;;;;10.27;6.83;;;10.90;97.30;;;;;;5008362;28;20503;-75
2022/05/15 01:15:25;;;;;;;9.60;5.80;;;10.90;97.30;;;;;;5009476;28;20223;-74
2022/05/15 01:17:51;;;;;;;14.20;6.30;;;10.90;97.30;;;;;;5008485;28;20450;-75
2022/05/15 01:20:22;;;;;;;28.63;9.03;;;10.90;97.30;;;;;;5008323;28;20827;-74
2022/05/15 01:22:47;;;;;;;17.63;7.00;;;10.90;97.30;;;;;;5009808;28;20589;-75
2022/05/15 01:25:19;;;;;;;12.30;6.23;;;10.80;97.30;;;;;;5011040;28;20448;-75
2022/05/15 01:28:06;;;;;;;15.20;6.30;;;10.80;97.30;;;;;;5012328;28;20208;-74
2022/05/15 01:30:33;;;;;;;11.03;5.93;;;10.70;97.30;;;;;;5013531;28;20734;-75
2022/05/15 01:32:58;;;;;;;10.57;6.50;;;10.60;97.30;;;;;;5012176;28;20825;-75
2022/05/15 01:35:24;;;;;;;12.70;6.60;;;10.50;97.30;;;;;;5012827;28;20427;-74
2022/05/15 01:37:50;;;;;;;16.40;7.83;;;10.50;97.30;;;;;;5011813;28;20220;-75
2022/05/15 01:40:16;;;;;;;17.10;6.90;;;10.40;97.30;;;;;;5011708;28;20778;-74
2022/05/15 01:42:42;;;;;;;18.57;7.07;;;10.40;97.30;;;;;;5011689;28;20189;-75
2022/05/15 01:45:09;;;;;;;10.73;7.00;;;10.30;97.30;;;;;;5012936;28;20208;-75
2022/05/15 01:47:35;;;;;;;12.27;7.10;;;10.30;97.30;;;;;;5013490;28;20585;-75
2022/05/15 01:50:01;;;;;;;17.77;6.30;;;10.30;97.30;;;;;;5011807;28;20424;-74
2022/05/15 01:52:27;;;;;;;11.53;6.30;;;10.20;97.30;;;;;;5011629;28;20415;-74
2022/05/15 01:54:53;;;;;;;15.07;7.10;;;10.20;97.30;;;;;;5012499;28;20470;-75
2022/05/15 01:57:19;;;;;;;25.83;10.67;;;10.10;97.30;;;;;;5013325;28;20844;-75
2022/05/15 01:59:44;;;;;;;14.07;7.27;;;10.10;97.30;;;;;;5027811;28;20177;-74
2022/05/15 02:02:10;;;;;;;21.57;8.03;;;10.10;97.30;;;;;;5011163;28;20182;-75
2022/05/15 02:04:35;;;;;;;15.77;7.07;;;10.10;97.30;;;;;;5011370;28;20193;-75
2022/05/15 02:07:01;;;;;;;14.90;7.37;;;10.10;97.30;;;;;;5011155;28;20232;-75
2022/05/15 02:09:27;;;;;;;17.67;8.33;;;10.00;97.30;;;;;;5011434;28;20189;-74
2022/05/15 02:11:52;;;;;;;15.97;7.83;;;10.00;97.30;;;;;;5012995;28;20181;-74
2022/05/15 02:14:18;;;;;;;19.03;7.73;;;10.00;97.30;;;;;;5012947;28;20264;-75
2022/05/15 02:16:44;;;;;;;15.57;7.77;;;10.00;97.30;;;;;;5012611;28;20199;-74
2022/05/15 02:19:09;;;;;;;16.83;8.53;;;10.00;97.30;;;;;;5012634;28;20729;-76
2022/05/15 02:21:35;;;;;;;17.27;7.83;;;9.90;97.30;;;;;;5010847;28;20201;-74
2022/05/15 02:24:00;;;;;;;13.13;6.97;;;9.90;97.30;;;;;;5012392;28;20181;-75
2022/05/15 02:26:26;;;;;;;17.63;7.47;;;9.80;97.30;;;;;;5010857;28;20201;-74
2022/05/15 02:28:52;;;;;;;16.07;6.80;;;9.80;97.30;;;;;;5010861;28;20675;-74
2022/05/15 02:31:17;;;;;;;10.37;6.23;;;9.90;97.30;;;;;;5012335;28;20212;-74
2022/05/15 02:33:43;;;;;;;15.40;6.57;;;9.80;97.30;;;;;;5010946;28;20275;-74
2022/05/15 02:36:09;;;;;;;11.60;6.80;;;9.90;97.30;;;;;;5009668;28;20208;-74
2022/05/15 02:38:37;;;;;;;13.60;6.87;;;9.90;97.30;;;;;;4990911;28;20228;-74
2022/05/15 02:41:03;;;;;;;13.20;6.80;;;9.90;97.30;;;;;;4990962;28;20421;-74
2022/05/15 02:43:29;;;;;;;13.07;6.50;;;9.80;97.30;;;;;;5007226;28;20437;-74
2022/05/15 02:45:55;;;;;;;12.50;6.60;;;9.70;97.30;;;;;;4990849;28;20448;-75
2022/05/15 02:51:06;;;;;;;13.60;6.97;;;9.60;97.30;;;;;;4992260;28;20406;-74
2022/05/15 02:53:36;;;;;;;11.53;6.10;;;9.50;97.30;;;;;;5007367;28;20428;-74
2022/05/15 02:56:05;;;;;;;12.73;7.57;;;9.50;97.30;;;;;;4992133;28;20809;-74
2022/05/15 02:58:31;;;;;;;16.40;7.20;;;9.50;97.30;;;;;;4990673;28;20443;-74
2022/05/15 03:00:57;;;;;;;29.53;7.33;;;9.50;97.30;;;;;;5007179;28;20923;-74
2022/05/15 03:03:27;;;;;;;10.60;6.30;;;9.50;97.30;;;;;;5007308;28;20448;-74
2022/05/15 03:05:53;;;;;;;14.87;6.40;;;9.50;97.30;;;;;;4990861;28;21017;-74
2022/05/15 03:08:19;;;;;;;14.70;6.90;;;9.50;97.30;;;;;;4991049;28;21009;-75
2022/05/15 03:10:45;;;;;;;11.57;6.57;;;9.40;97.30;;;;;;4993830;28;20417;-79
2022/05/15 03:13:11;;;;;;;9.60;5.97;;;9.30;97.30;;;;;;5010958;28;20433;-79
2022/05/15 03:15:37;;;;;;;13.00;6.47;;;9.30;97.30;;;;;;4994872;28;20202;-80
2022/05/15 03:18:03;;;;;;;10.43;5.50;;;9.30;97.30;;;;;;5011087;28;20425;-80
2022/05/15 03:20:29;;;;;;;11.67;6.57;;;9.30;97.30;;;;;;4994907;28;20432;-80
2022/05/15 03:22:55;;;;;;;18.07;6.97;;;9.20;97.30;;;;;;4994782;28;20421;-80
2022/05/15 03:25:21;;;;;;;20.47;8.43;;;9.20;97.30;;;;;;4994605;28;20205;-79
2022/05/15 03:27:47;;;;;;;16.07;7.23;;;9.20;97.30;;;;;;4993961;28;20986;-79
2022/05/15 03:30:14;;;;;;;10.33;6.57;;;9.10;97.30;;;;;;4994315;28;20432;-79
2022/05/15 03:32:39;;;;;;;13.10;6.40;;;9.10;97.30;;;;;;4994131;28;20182;-79
2022/05/15 03:35:07;;;;;;;15.07;6.90;;;9.00;97.30;;;;;;4995684;28;21060;-79
2022/05/15 03:37:33;;;;;;;11.87;6.70;;;9.00;97.30;;;;;;5002272;28;20239;-78
2022/05/15 03:39:59;;;;;;;11.80;6.60;;;8.90;97.30;;;;;;5010349;28;20427;-79
2022/05/15 03:42:26;;;;;;;17.87;7.13;;;8.90;97.30;;;;;;5010281;28;20425;-79
2022/05/15 03:44:52;;;;;;;16.33;7.67;;;8.90;97.30;;;;;;5010246;28;20425;-79
2022/05/15 03:47:18;;;;;;;21.03;6.70;;;8.90;97.30;;;;;;5010359;28;20456;-79
2022/05/15 03:49:44;;;;;;;19.03;8.80;;;8.90;97.30;;;;;;5010709;28;20616;-79
2022/05/15 03:52:10;;;;;;;11.70;7.43;;;8.90;97.30;;;;;;5010366;28;20927;-79
2022/05/15 03:54:35;;;;;;;11.10;7.23;;;8.90;97.30;;;;;;5009776;28;20221;-79
2022/05/15 03:57:01;;;;;;;9.50;6.43;;;9.00;97.30;;;;;;5009695;28;20437;-79
2022/05/15 03:59:31;;;;;;;11.00;6.13;;;9.00;97.30;;;;;;5010361;28;20182;-80
2022/05/15 04:01:57;;;;;;;16.60;7.07;;;9.10;97.30;;;;;;5009990;28;20421;-79
2022/05/15 04:04:23;;;;;;;13.40;6.83;;;9.10;97.30;;;;;;5010507;28;20428;-79
2022/05/15 04:06:49;;;;;;;18.47;7.27;;;9.10;97.30;;;;;;5009777;28;20447;-79
2022/05/15 04:09:15;;;;;;;14.30;7.30;;;9.20;97.30;;;;;;5009851;28;20715;-79
2022/05/15 04:11:41;;;;;;;9.60;6.20;;;9.20;97.30;;;;;;5009215;28;20847;-79
2022/05/15 04:14:07;;;;;;;17.97;6.67;;;9.20;97.30;;;;;;5009985;28;20205;-79
2022/05/15 04:16:34;;;;;;;18.57;6.80;;;9.20;97.30;;;;;;5009364;28;20441;-80
2022/05/15 04:18:59;;;;;;;20.70;6.97;;;9.20;97.30;;;;;;5009404;28;20249;-79
2022/05/15 04:21:25;;;;;;;13.43;7.37;;;9.20;97.30;;;;;;5009871;28;20464;-79
2022/05/15 04:23:51;;;;;;;18.60;8.10;;;9.20;97.30;;;;;;4994016;28;20185;-79
2022/05/15 04:26:17;;;;;;;17.80;8.03;;;9.20;97.30;;;;;;5009703;28;20438;-79
2022/05/15 04:28:43;;;;;;;13.63;7.33;;;9.20;97.30;;;;;;5008904;28;20514;-79
2022/05/15 04:31:08;;;;;;;12.43;7.60;;;9.20;97.30;;;;;;5009880;28;20424;-79
2022/05/15 04:33:34;;;;;;;17.50;8.10;;;9.20;97.30;;;;;;5009798;28;20178;-79
2022/05/15 04:36:00;;;;;;;26.70;8.57;;;9.30;97.30;;;;;;5009563;28;20205;-79
2022/05/15 04:38:27;;;;;;;12.70;7.50;;;9.30;97.30;;;;;;5011900;28;20428;-80
2022/05/15 04:40:52;;;;;;;18.83;9.03;;;9.30;97.30;;;;;;5012583;28;20421;-79
2022/05/15 04:43:18;;;;;;;13.83;8.30;;;9.40;97.30;;;;;;5012178;28;20470;-78
2022/05/15 04:45:45;;;;;;;13.93;9.23;;;9.40;97.30;;;;;;5010670;28;20189;-79
2022/05/15 04:48:11;;;;;;;14.73;7.90;;;9.40;97.30;;;;;;5011526;28;20467;-81
2022/05/15 04:50:37;;;;;;;16.07;8.83;;;9.50;97.30;;;;;;5011588;28;20413;-79
2022/05/15 04:53:06;;;;;;;16.93;8.30;;;9.50;97.30;;;;;;5012097;28;20412;-79
2022/05/15 04:55:33;;;;;;;14.77;7.93;;;9.50;97.30;;;;;;5012441;28;20799;-79
2022/05/15 04:57:59;;;;;;;21.77;8.70;;;9.60;97.30;;;;;;5012581;28;20420;-79
2022/05/15 05:00:25;;;;;;;21.27;9.20;;;9.60;97.30;;;;;;5013990;28;20504;-79
2022/05/15 05:02:50;;;;;;;20.83;7.87;;;9.70;97.30;;;;;;5016630;28;20510;-79
2022/05/15 05:05:16;;;;;;;22.97;9.37;;;9.80;97.30;;;;;;5015687;28;20470;-80
2022/05/15 05:07:42;;;;;;;16.30;8.90;;;9.90;97.30;;;;;;5016371;28;20185;-79
2022/05/15 05:10:10;;;;;;;19.90;8.23;;;9.90;97.30;;;;;;5015755;28;20443;-80
2022/05/15 05:12:36;;;;;;;17.20;8.40;;;10.00;97.30;;;;;;5015580;28;20184;-79
2022/05/15 05:15:03;;;;;;;16.40;8.77;;;10.10;97.30;;;;;;5015527;28;20531;-79
2022/05/15 05:17:29;;;;;;;22.47;9.27;;;10.10;97.30;;;;;;5015140;28;20173;-79
2022/05/15 05:19:55;;;;;;;17.90;7.87;;;10.20;97.30;;;;;;5015298;28;20422;-80
2022/05/15 05:22:21;;;;;;;22.27;9.60;;;10.30;97.30;;;;;;5015813;28;20236;-79
2022/05/15 05:24:46;;;;;;;17.00;7.67;;;10.30;97.30;;;;;;5014798;28;20173;-79
2022/05/15 05:27:12;;;;;;;18.93;8.90;;;10.40;97.30;;;;;;5015757;28;20957;-79
2022/05/15 05:29:38;;;;;;;12.17;6.93;;;10.50;97.30;;;;;;5014875;28;20947;-79
2022/05/15 05:32:04;;;;;;;17.73;8.13;;;10.60;97.30;;;;;;5014221;28;20177;-79
2022/05/15 05:34:30;;;;;;;18.20;7.37;;;10.70;97.30;;;;;;5014947;28;20177;-80
2022/05/15 05:36:55;;;;;;;12.30;7.13;;;10.70;97.30;;;;;;5014271;28;20904;-79
2022/05/15 05:39:21;;;;;;;19.90;7.73;;;10.80;97.30;;;;;;5015247;28;20522;-79
2022/05/15 05:41:47;;;;;;;17.67;6.73;;;10.90;97.30;;;;;;5015847;28;20173;-79
2022/05/15 05:44:13;;;;;;;14.50;6.60;;;11.00;97.30;;;;;;5015670;28;20188;-79
2022/05/15 05:46:39;;;;;;;14.47;5.73;;;11.00;97.30;;;;;;5015597;28;20201;-79
2022/05/15 05:49:04;;;;;;;12.60;5.73;;;11.10;97.30;;;;;;5015173;28;20268;-79
2022/05/15 05:51:30;;;;;;;12.70;6.30;;;11.20;97.30;;;;;;5015042;28;20451;-79
2022/05/15 05:53:55;;;;;;;15.53;6.40;;;11.20;97.30;;;;;;5016220;28;20192;-79
2022/05/15 05:56:21;;;;;;;18.83;6.80;;;11.30;97.30;;;;;;5018828;28;20204;-80
2022/05/15 05:58:49;;;;;;;26.30;7.00;;;11.40;97.30;;;;;;5014207;28;20212;-79
2022/05/15 06:01:15;;;;;;;22.83;7.20;;;11.50;97.30;;;;;;5017276;28;20946;-79
2022/05/15 06:06:25;;;;;;;27.20;6.70;;;11.70;97.30;;;;;;5017217;28;20760;-79
2022/05/15 06:08:50;;;;;;;11.67;5.20;;;11.80;97.30;;;;;;5025495;28;20456;-79
2022/05/15 06:11:16;;;;;;;14.80;5.77;;;11.90;97.30;;;;;;5015505;28;20169;-79
2022/05/15 06:13:42;;;;;;;21.00;6.00;;;12.00;97.30;;;;;;5010880;28;20225;-79
2022/05/15 06:16:08;;;;;;;16.87;5.60;;;12.10;97.30;;;;;;5029902;28;20197;-79
2022/05/15 06:18:34;;;;;;;12.10;5.50;;;12.20;97.30;;;;;;5012828;28;20185;-79
2022/05/15 06:21:00;;;;;;;14.13;5.27;;;12.30;97.30;;;;;;5022615;28;20489;-79
2022/05/15 06:23:26;;;;;;;13.63;5.30;;;12.40;97.30;;;;;;5026334;28;20430;-79
2022/05/15 06:25:52;;;;;;;19.87;4.70;;;12.50;97.30;;;;;;5017140;28;20223;-80
2022/05/15 06:28:17;;;;;;;9.03;4.47;;;12.60;97.30;;;;;;5027965;28;20211;-79
2022/05/15 06:30:43;;;;;;;10.03;3.67;;;12.70;97.30;;;;;;5036081;28;20223;-80
2022/05/15 06:33:09;;;;;;;9.50;4.00;;;12.80;97.30;;;;;;5020267;28;20598;-79
2022/05/15 06:35:35;;;;;;;12.20;4.07;;;12.90;97.30;;;;;;5030309;28;20224;-79
2022/05/15 06:38:03;;;;;;;18.67;5.10;;;13.00;97.30;;;;;;5019309;28;20435;-79
2022/05/15 06:40:29;;;;;;;13.20;4.80;;;13.10;97.30;;;;;;5016734;28;20424;-79
2022/05/15 06:42:57;;;;;;;16.20;5.43;;;13.20;97.30;;;;;;5013510;28;20511;-79
2022/05/15 06:45:24;;;;;;;11.60;4.70;;;13.30;97.30;;;;;;5031468;28;20467;-79
2022/05/15 06:47:49;;;;;;;13.50;5.33;;;13.40;97.30;;;;;;5025454;28;20460;-79
2022/05/15 06:50:16;;;;;;;9.87;4.60;;;13.50;97.30;;;;;;5027490;28;20467;-79
2022/05/15 06:52:41;;;;;;;14.67;5.73;;;13.50;97.30;;;;;;5021898;28;20174;-80
2022/05/15 06:55:11;;;;;;;16.47;4.93;;;13.60;97.30;;;;;;5024960;28;20690;-80
2022/05/15 06:57:37;;;;;;;10.00;4.50;;;13.70;97.30;;;;;;5010879;28;20288;-79
2022/05/15 07:00:10;;;;;;;8.20;4.60;;;13.80;97.30;;;;;;5017724;28;20447;-80
2022/05/15 07:02:36;;;;;;;11.30;4.00;;;13.90;97.30;;;;;;5016938;28;20427;-80
2022/05/15 07:05:04;;;;;;;16.43;4.77;;;14.00;97.30;;;;;;5015304;28;20466;-79
2022/05/15 07:07:30;;;;;;;13.07;5.27;;;14.00;97.30;;;;;;5016253;28;20491;-79
2022/05/15 07:09:55;;;;;;;12.87;4.67;;;14.20;97.30;;;;;;5016981;28;20457;-79
2022/05/15 07:12:21;;;;;;;14.53;4.40;;;14.30;97.30;;;;;;5015569;28;20412;-79
2022/05/15 07:14:46;;;;;;;19.40;5.97;;;14.40;97.30;;;;;;5016401;28;20205;-79
2022/05/15 07:17:12;;;;;;;8.93;3.93;;;14.50;97.30;;;;;;5012002;28;20193;-75
2022/05/15 07:19:38;;;;;;;9.00;4.70;;;14.60;97.30;;;;;;5012089;28;20319;-75
2022/05/15 07:22:04;;;;;;;9.73;3.63;;;14.60;97.30;;;;;;5010507;28;20638;-77
2022/05/15 07:24:29;;;;;;;15.80;4.83;;;14.70;97.30;;;;;;5010722;28;20268;-76
2022/05/15 07:26:55;;;;;;;8.13;3.27;;;14.80;97.30;;;;;;5010923;28;20197;-77
2022/05/15 07:29:24;;;;;;;12.23;3.73;;;14.90;97.30;;;;;;5012010;28;20177;-76
2022/05/15 07:31:51;;;;;;;14.30;3.87;;;15.00;97.30;;;;;;5010850;28;20177;-75
2022/05/15 07:34:17;;;;;;;9.60;3.67;;;15.00;97.30;;;;;;5010373;28;20473;-76
2022/05/15 07:36:43;;;;;;;12.37;3.40;;;15.10;97.30;;;;;;5011252;28;20920;-76
2022/05/15 07:39:09;;;;;;;11.53;3.97;;;15.20;97.30;;;;;;5010134;28;20446;-76
2022/05/15 07:41:35;;;;;;;14.70;3.70;;;15.30;97.30;;;;;;5016151;28;20212;-76
2022/05/15 07:44:00;;;;;;;8.93;3.60;;;15.40;96.30;;;;;;5010164;28;20204;-76
2022/05/15 07:46:26;;;;;;;6.13;2.93;;;15.50;96.30;;;;;;5011134;28;20257;-76
2022/05/15 07:48:54;;;;;;;14.87;4.00;;;15.60;96.40;;;;;;5009869;28;20201;-76
2022/05/15 07:51:20;;;;;;;7.70;3.10;;;15.80;95.60;;;;;;5010751;28;20180;-76
2022/05/15 07:53:45;;;;;;;13.60;3.40;;;15.90;95.30;;;;;;5010708;28;20448;-76
2022/05/15 07:56:13;;;;;;;10.03;3.60;;;16.00;94.90;;;;;;5009071;28;20931;-77
2022/05/15 07:58:39;;;;;;;8.13;3.30;;;16.10;95.10;;;;;;5009655;28;20193;-76
2022/05/15 08:01:05;;;;;;;10.20;3.80;;;16.30;94.80;;;;;;5020291;28;20419;-76
2022/05/15 08:03:43;;;;;;;10.73;3.70;;;16.40;94.30;;;;;;4996828;28;20528;-76
2022/05/15 08:08:56;;;;;;;9.30;3.83;;;16.50;93.70;;;;;;5015642;28;20978;-77
2022/05/15 08:11:26;;;;;;;12.10;4.00;;;16.60;93.40;;;;;;5011134;28;20820;-76
2022/05/15 08:13:52;;;;;;;11.77;3.67;;;16.60;93.20;;;;;;5020535;28;20423;-77
2022/05/15 08:16:18;;;;;;;7.37;3.40;;;16.70;93.80;;;;;;5026985;28;20470;-77
2022/05/15 08:24:12;;;;;;;8.87;3.70;;;17.00;92.10;;;;;;5014987;28;20422;-77
2022/05/15 08:26:37;;;;;;;11.60;3.30;;;17.00;91.40;;;;;;5030001;28;20440;-77
2022/05/15 08:29:03;;;;;;;12.27;3.23;;;17.20;91.70;;;;;;5028864;28;20204;-78
2022/05/15 08:31:29;;;;;;;15.20;2.97;;;17.30;91.00;;;;;;5030133;28;20181;-77
2022/05/15 08:33:55;;;;;;;12.40;3.47;;;17.40;90.20;;;;;;5027796;28;20177;-77
2022/05/15 08:36:20;;;;;;;10.97;3.30;;;17.40;89.50;;;;;;5019831;28;20208;-77
2022/05/15 08:38:46;;;;;;;12.87;3.70;;;17.50;89.10;;;;;;5008578;28;20425;-77
2022/05/15 08:41:23;;;;;;;6.77;2.87;;;17.50;88.60;;;;;;5008564;28;20231;-77
2022/05/15 08:44:10;;;;;;;12.67;3.30;;;17.60;88.50;;;;;;5010520;28;20342;-77
2022/05/15 08:46:50;;;;;;;10.73;3.43;;;17.70;88.60;;;;;;4995341;28;21004;-77
2022/05/15 08:49:30;;;;;;;8.07;4.03;;;17.70;88.60;;;;;;5013090;28;20925;-77
2022/05/15 08:52:09;;;;;;;13.23;3.20;;;17.80;90.60;;;;;;5020220;28;20920;-77
2022/05/15 08:54:41;;;;;;;6.57;3.30;;;17.90;89.10;;;;;;5028999;28;20451;-78
2022/05/15 08:57:21;;;;;;;7.90;3.10;;;18.10;89.10;;;;;;5022620;28;20415;-78
2022/05/15 08:59:57;;;;;;;9.60;3.53;;;18.20;90.00;;;;;;5014421;28;20486;-77
2022/05/15 09:02:25;;;;;;;6.33;3.00;;;18.30;88.40;;;;;;5016175;28;20412;-78
2022/05/15 09:04:55;;;;;;;13.07;2.97;;;18.40;87.10;;;;;;5013764;28;20992;-77
2022/05/15 09:07:39;;;;;;;12.20;3.10;;;18.40;88.00;;;;;;5011067;28;21000;-80
2022/05/15 09:10:33;;;;;;;7.80;2.87;;;18.50;87.70;;;;;;5016579;28;20518;-77
2022/05/15 09:13:30;;;;;;;12.70;4.50;;;18.60;87.40;;;;;;5015667;28;21202;-77
2022/05/15 09:15:59;;;;;;;13.43;3.87;;;18.60;86.00;;;;;;5021361;28;20475;-77
2022/05/15 09:18:26;;;;;;;9.90;3.13;;;18.60;86.80;;;;;;5004731;28;20464;-76
2022/05/15 09:21:13;;;;;;;17.93;4.00;;;18.70;85.30;;;;;;5019568;28;20524;-77
2022/05/15 09:23:52;;;;;;;16.57;5.10;;;18.70;85.50;;;;;;5012409;28;20446;-77
2022/05/15 09:26:28;;;;;;;16.20;3.83;;;18.70;85.70;;;;;;5008098;28;20953;-77
2022/05/15 09:29:00;;;;;;;15.50;3.33;;;18.80;86.10;;;;;;5019173;28;20455;-76
2022/05/15 09:31:29;;;;;;;20.13;4.23;;;18.90;85.20;;;;;;5014901;28;20499;-77
2022/05/15 09:34:11;;;;;;;7.63;3.00;;;19.00;84.40;;;;;;5018672;28;20423;-77
2022/05/15 09:36:36;;;;;;;13.60;4.00;;;19.00;84.00;;;;;;5009514;28;20937;-77
2022/05/15 09:39:17;;;;;;;9.80;3.70;;;19.10;85.30;;;;;;5009493;28;20412;-77
2022/05/15 09:44:35;;;;;;;16.60;3.50;;;19.20;85.00;;;;;;5010008;28;20439;-77
2022/05/15 09:47:21;;;;;;;21.40;4.43;;;19.40;84.90;;;;;;5011951;28;20957;-77
2022/05/15 09:49:47;;;;;;;18.63;4.23;;;19.50;84.70;;;;;;5010488;28;20415;-77
2022/05/15 09:52:35;;;;;;;13.83;3.50;;;19.50;83.50;;;;;;5011658;28;20408;-76
2022/05/15 09:55:21;;;;;;;15.53;4.47;;;19.60;84.10;;;;;;5011358;28;20554;-77
2022/05/15 09:57:55;;;;;;;11.10;4.80;;;19.70;84.10;;;;;;5011986;28;20420;-78
2022/05/15 10:00:23;;;;;;;10.53;3.53;;;19.80;84.60;;;;;;5013547;28;20942;-78
2022/05/15 10:02:52;;;;;;;10.90;3.90;;;19.90;83.80;;;;;;5013638;28;20416;-77
2022/05/15 10:05:22;;;;;;;23.77;3.97;;;20.00;83.40;;;;;;5019748;28;20797;-77
2022/05/15 10:08:08;;;;;;;18.47;4.10;;;20.10;82.00;;;;;;5011636;28;20550;-77
2022/05/15 10:10:37;;;;;;;14.73;3.80;;;20.10;81.40;;;;;;5023599;28;20433;-78
2022/05/15 10:13:11;;;;;;;10.60;3.37;;;20.00;82.40;;;;;;5014236;28;20422;-78
2022/05/15 10:15:42;;;;;;;15.03;3.83;;;20.10;82.70;;;;;;5012640;28;20439;-78
2022/05/15 10:18:22;;;;;;;15.23;4.40;;;20.30;83.30;;;;;;5011548;28;20436;-77
2022/05/15 10:20:50;;;;;;;8.93;3.90;;;20.30;81.30;;;;;;5011732;28;20424;-77
2022/05/15 10:23:33;;;;;;;16.30;4.43;;;20.30;81.50;;;;;;5015716;28;20834;-77
2022/05/15 10:26:12;;;;;;;11.13;3.50;;;20.50;82.90;;;;;;5011036;28;20524;-78
2022/05/15 10:28:45;;;;;;;9.40;2.90;;;20.60;82.00;;;;;;5010899;28;20500;-78
2022/05/15 10:31:35;;;;;;;16.20;4.53;;;20.60;81.40;;;;;;5027239;28;20416;-78
2022/05/15 10:34:03;;;;;;;8.13;3.70;;;20.60;83.40;;;;;;5012932;28;20408;-77
2022/05/15 10:36:43;;;;;;;12.17;3.57;;;20.70;84.00;;;;;;5012257;28;20432;-78
2022/05/15 10:39:18;;;;;;;9.43;3.30;;;20.80;82.00;;;;;;5012518;28;20408;-78
2022/05/15 10:42:32;;;;;;;16.27;3.20;;;20.90;81.40;;;;;;5011106;28;20510;-78
2022/05/15 10:45:28;;;;;;;16.20;3.70;;;20.90;79.10;;;;;;4941720;28;20440;-77
2022/05/15 10:48:21;;;;;;;11.80;3.00;;;20.80;78.80;;;;;;5012094;28;20440;-77
2022/05/15 10:51:17;;;;;;;12.90;3.30;;;20.70;78.70;;;;;;5011484;28;20413;-78
2022/05/15 10:57:24;;;;;;;11.07;4.20;;;20.80;79.10;;;;;;5011534;28;20439;-78
2022/05/15 11:00:20;;;;;;;12.67;3.30;;;20.90;80.60;;;;;;5010938;28;20400;-78
2022/05/15 11:03:03;;;;;;;9.87;3.53;;;21.00;78.90;;;;;;5011623;28;20412;-78
2022/05/15 11:05:44;;;;;;;11.17;3.07;;;21.10;79.80;;;;;;5010762;28;20436;-78
2022/05/15 11:08:29;;;;;;;9.90;3.53;;;21.20;77.70;;;;;;5027138;28;20458;-77
2022/05/15 11:11:08;;;;;;;12.50;3.60;;;21.20;79.30;;;;;;5010581;28;20466;-78
2022/05/15 11:13:55;;;;;;;11.77;3.63;;;21.40;81.00;;;;;;5012021;28;20463;-78
2022/05/15 11:16:26;;;;;;;9.53;2.97;;;21.50;79.80;;;;;;5010109;28;20436;-78
2022/05/15 11:19:19;;;;;;;9.53;3.50;;;21.60;78.10;;;;;;5010385;28;21056;-78
2022/05/15 11:22:03;;;;;;;14.07;3.20;;;21.70;78.40;;;;;;5026732;28;20412;-78
2022/05/15 11:24:42;;;;;;;7.87;2.60;;;21.80;77.00;;;;;;5011752;28;20396;-78
2022/05/15 11:27:24;;;;;;;15.27;4.03;;;21.80;77.80;;;;;;5011582;28;20420;-78
2022/05/15 11:29:52;;;;;;;10.00;2.87;;;21.90;79.40;;;;;;5010002;28;20490;-78
2022/05/15 11:32:40;;;;;;;11.43;3.40;;;22.00;77.70;;;;;;5011481;28;20416;-78
2022/05/15 11:35:12;;;;;;;10.20;3.20;;;22.10;76.20;;;;;;5010496;28;20436;-78
2022/05/15 11:37:38;;;;;;;11.20;3.53;;;22.10;76.00;;;;;;5009965;28;20424;-78
2022/05/15 11:40:10;;;;;;;9.83;3.53;;;22.10;76.00;;;;;;5009867;28;20797;-78
2022/05/15 11:42:36;;;;;;;7.77;3.20;;;22.30;78.80;;;;;;5011177;28;20173;-79
2022/05/15 11:45:34;;;;;;;9.20;3.00;;;22.40;78.10;;;;;;5011369;28;20523;-78
2022/05/15 11:48:17;;;;;;;12.33;3.47;;;22.70;78.30;;;;;;5016011;28;20193;-79
2022/05/15 11:50:57;;;;;;;6.77;2.77;;;22.80;76.70;;;;;;5012099;28;20412;-77
2022/05/15 11:53:46;;;;;;;5.07;3.00;;;22.90;76.40;;;;;;5007454;28;20976;-78
2022/05/15 11:56:27;;;;;;;11.73;3.70;;;23.10;77.30;;;;;;5006192;28;20463;-79
2022/05/15 11:59:11;;;;;;;6.97;2.93;;;23.30;76.20;;;;;;5007811;28;20526;-79
2022/05/15 12:01:38;;;;;;;13.47;3.13;;;23.40;76.40;;;;;;5005163;28;20419;-79
2022/05/15 12:04:07;;;;;;;11.23;3.40;;;23.50;74.20;;;;;;5020834;28;20436;-78
2022/05/15 12:06:53;;;;;;;11.80;3.77;;;23.40;74.80;;;;;;5008932;28;20448;-78
2022/05/15 12:09:19;;;;;;;16.23;4.10;;;23.40;74.90;;;;;;4972262;28;20460;-78
2022/05/15 12:11:47;;;;;;;12.10;3.73;;;23.40;75.20;;;;;;5008885;28;20486;-77
2022/05/15 12:14:35;;;;;;;13.10;3.30;;;23.50;73.90;;;;;;5009121;28;20421;-78
2022/05/15 12:17:24;;;;;;;12.83;3.23;;;23.60;74.10;;;;;;5023911;28;20451;-78
2022/05/15 12:19:59;;;;;;;13.00;3.40;;;23.50;72.60;;;;;;5009536;28;20405;-79
2022/05/15 12:22:24;;;;;;;12.00;4.03;;;23.50;74.50;;;;;;5011990;28;21017;-79
2022/05/15 12:24:50;;;;;;;8.70;2.57;;;23.40;73.70;;;;;;5014495;28;20516;-77
2022/05/15 12:27:26;;;;;;;10.33;3.37;;;23.30;71.60;;;;;;5011786;28;20248;-78
2022/05/15 12:30:04;;;;;;;8.90;2.80;;;23.20;74.30;;;;;;5008909;28;20177;-79
2022/05/15 12:32:39;;;;;;;10.13;2.87;;;23.40;76.60;;;;;;5003841;28;20456;-78
2022/05/15 12:35:27;;;;;;;11.47;3.57;;;23.60;75.60;;;;;;5010294;28;20435;-79
2022/05/15 12:38:02;;;;;;;8.80;2.87;;;23.80;75.60;;;;;;4998368;28;20474;-78
2022/05/15 12:40:54;;;;;;;11.20;3.03;;;24.10;74.90;;;;;;5010083;28;20446;-78
2022/05/15 12:43:40;;;;;;;11.63;2.93;;;24.20;72.40;;;;;;4995805;28;20431;-80
2022/05/15 12:46:07;;;;;;;6.37;2.97;;;24.30;70.90;;;;;;4990076;28;20532;-78
2022/05/15 12:48:38;;;;;;;8.20;3.27;;;24.40;72.80;;;;;;4990940;28;20954;-78
2022/05/15 12:51:09;;;;;;;11.57;2.80;;;24.40;70.40;;;;;;5002623;28;20431;-77
2022/05/15 12:53:47;;;;;;;5.70;3.00;;;24.30;71.40;;;;;;5010255;28;20427;-78
2022/05/15 12:56:12;;;;;;;9.63;2.97;;;24.30;72.20;;;;;;5008137;28;20498;-78
2022/05/15 12:58:39;;;;;;;6.97;2.60;;;24.40;72.00;;;;;;5008337;28;20873;-79
2022/05/15 13:01:05;;;;;;;5.97;2.97;;;24.50;71.20;;;;;;5008284;28;20482;-79
2022/05/15 13:03:31;;;;;;;8.67;4.37;;;24.70;70.80;;;;;;5008321;28;20418;-79
2022/05/15 13:06:03;;;;;;;10.00;2.93;;;24.70;71.30;;;;;;5008557;28;21000;-78
2022/05/15 13:08:50;;;;;;;5.73;2.60;;;24.80;72.50;;;;;;5008247;28;20459;-79
2022/05/15 13:11:22;;;;;;;5.00;2.67;;;25.00;73.90;;;;;;5005296;28;20426;-80
2022/05/15 13:13:52;;;;;;;7.90;3.37;;;25.20;71.30;;;;;;5007855;28;20431;-79
2022/05/15 13:16:24;;;;;;;8.17;2.70;;;25.40;72.90;;;;;;5006441;28;20785;-78